sensor_id;sensor_type;location;lat;lon;timestamp;P1;durP1;ratioP1;P2;durP2;ratioP2
44169;SDS011;29836;52.286;9.576;2023-01-28T00:02:05;3.80;;;0.90;;
44169;SDS011;29836;52.286;9.576;2023-01-28T00:04:31;2.20;;;1.00;;
44169;SDS011;29836;52.286;9.576;2023-01-28T00:06:56;0.55;;;0.55;;
44169;SDS011;29836;52.286;9.576;2023-01-28T00:09:24;2.30;;;0.95;;
44169;SDS011;29836;52.286;9.576;2023-01-28T00:11:50;2.75;;;0.88;;
44169;SDS011;29836;52.286;9.576;2023-01-28T00:14:15;0.80;;;0.80;;
44169;SDS011;29836;52.286;9.576;2023-01-28T00:16:41;5.22;;;0.82;;
44169;SDS011;29836;52.286;9.576;2023-01-28T00:19:07;2.08;;;0.60;;
44169;SDS011;29836;52.286;9.576;2023-01-28T00:21:33;2.35;;;0.70;;
44169;SDS011;29836;52.286;9.576;2023-01-28T00:23:59;2.47;;;1.17;;
44169;SDS011;29836;52.286;9.576;2023-01-28T00:26:25;1.20;;;0.70;;
44169;SDS011;29836;52.286;9.576;2023-01-28T00:28:55;4.43;;;0.70;;
44169;SDS011;29836;52.286;9.576;2023-01-28T00:31:21;3.95;;;0.82;;
44169;SDS011;29836;52.286;9.576;2023-01-28T00:33:51;2.03;;;0.57;;
44169;SDS011;29836;52.286;9.576;2023-01-28T00:36:18;4.95;;;1.17;;
44169;SDS011;29836;52.286;9.576;2023-01-28T00:38:55;1.45;;;0.70;;
44169;SDS011;29836;52.286;9.576;2023-01-28T00:41:24;0.73;;;0.50;;
44169;SDS011;29836;52.286;9.576;2023-01-28T00:43:51;0.75;;;0.70;;
44169;SDS011;29836;52.286;9.576;2023-01-28T00:46:20;0.70;;;0.50;;
44169;SDS011;29836;52.286;9.576;2023-01-28T00:48:47;2.33;;;0.90;;
44169;SDS011;29836;52.286;9.576;2023-01-28T00:51:13;0.73;;;0.70;;
44169;SDS011;29836;52.286;9.576;2023-01-28T00:53:41;6.60;;;1.02;;
44169;SDS011;29836;52.286;9.576;2023-01-28T00:56:07;0.88;;;0.47;;
44169;SDS011;29836;52.286;9.576;2023-01-28T00:58:36;0.55;;;0.43;;
44169;SDS011;29836;52.286;9.576;2023-01-28T01:01:21;2.97;;;0.98;;
44169;SDS011;29836;52.286;9.576;2023-01-28T01:03:48;1.40;;;0.60;;
44169;SDS011;29836;52.286;9.576;2023-01-28T01:06:21;0.77;;;0.70;;
44169;SDS011;29836;52.286;9.576;2023-01-28T01:08:48;3.85;;;0.70;;
44169;SDS011;29836;52.286;9.576;2023-01-28T01:11:14;1.50;;;0.70;;
44169;SDS011;29836;52.286;9.576;2023-01-28T01:13:41;4.47;;;0.90;;
44169;SDS011;29836;52.286;9.576;2023-01-28T01:16:08;1.83;;;0.73;;
44169;SDS011;29836;52.286;9.576;2023-01-28T01:18:36;1.63;;;0.98;;
44169;SDS011;29836;52.286;9.576;2023-01-28T01:21:06;1.05;;;0.60;;
44169;SDS011;29836;52.286;9.576;2023-01-28T01:23:36;0.70;;;0.60;;
44169;SDS011;29836;52.286;9.576;2023-01-28T01:26:02;2.72;;;0.85;;
44169;SDS011;29836;52.286;9.576;2023-01-28T01:28:28;0.60;;;0.60;;
44169;SDS011;29836;52.286;9.576;2023-01-28T01:31:01;0.65;;;0.60;;
44169;SDS011;29836;52.286;9.576;2023-01-28T01:33:28;6.85;;;1.15;;
44169;SDS011;29836;52.286;9.576;2023-01-28T01:35:54;1.00;;;0.60;;
44169;SDS011;29836;52.286;9.576;2023-01-28T01:38:21;1.13;;;0.80;;
44169;SDS011;29836;52.286;9.576;2023-01-28T01:40:46;0.93;;;0.70;;
44169;SDS011;29836;52.286;9.576;2023-01-28T01:43:19;1.60;;;0.60;;
44169;SDS011;29836;52.286;9.576;2023-01-28T01:45:47;1.25;;;0.68;;
44169;SDS011;29836;52.286;9.576;2023-01-28T01:48:27;1.30;;;1.02;;
44169;SDS011;29836;52.286;9.576;2023-01-28T01:51:02;0.90;;;0.75;;
44169;SDS011;29836;52.286;9.576;2023-01-28T01:53:33;1.33;;;0.60;;
44169;SDS011;29836;52.286;9.576;2023-01-28T01:56:01;3.22;;;0.80;;
44169;SDS011;29836;52.286;9.576;2023-01-28T01:58:31;0.70;;;0.70;;
44169;SDS011;29836;52.286;9.576;2023-01-28T02:00:59;2.30;;;0.63;;
44169;SDS011;29836;52.286;9.576;2023-01-28T02:04:12;4.63;;;0.85;;
44169;SDS011;29836;52.286;9.576;2023-01-28T02:06:17;7.60;;;1.48;;
44169;SDS011;29836;52.286;9.576;2023-01-28T02:08:43;3.17;;;0.68;;
44169;SDS011;29836;52.286;9.576;2023-01-28T02:11:09;3.83;;;0.90;;
44169;SDS011;29836;52.286;9.576;2023-01-28T02:13:39;0.40;;;0.40;;
44169;SDS011;29836;52.286;9.576;2023-01-28T02:16:07;0.73;;;0.70;;
44169;SDS011;29836;52.286;9.576;2023-01-28T02:18:35;2.65;;;0.75;;
44169;SDS011;29836;52.286;9.576;2023-01-28T02:24:02;1.30;;;0.95;;
44169;SDS011;29836;52.286;9.576;2023-01-28T02:26:55;2.22;;;0.80;;
44169;SDS011;29836;52.286;9.576;2023-01-28T02:34:48;4.32;;;1.02;;
44169;SDS011;29836;52.286;9.576;2023-01-28T02:37:24;1.77;;;0.90;;
44169;SDS011;29836;52.286;9.576;2023-01-28T02:40:02;1.52;;;0.77;;
44169;SDS011;29836;52.286;9.576;2023-01-28T02:42:34;0.82;;;0.65;;
44169;SDS011;29836;52.286;9.576;2023-01-28T02:45:02;3.50;;;0.60;;
44169;SDS011;29836;52.286;9.576;2023-01-28T02:47:31;0.70;;;0.68;;
44169;SDS011;29836;52.286;9.576;2023-01-28T02:50:16;1.17;;;0.60;;
44169;SDS011;29836;52.286;9.576;2023-01-28T02:52:53;0.47;;;0.40;;
44169;SDS011;29836;52.286;9.576;2023-01-28T02:55:50;0.88;;;0.60;;
44169;SDS011;29836;52.286;9.576;2023-01-28T03:01:14;1.38;;;1.02;;
44169;SDS011;29836;52.286;9.576;2023-01-28T03:03:59;1.67;;;0.88;;
44169;SDS011;29836;52.286;9.576;2023-01-28T03:06:33;3.38;;;1.17;;
44169;SDS011;29836;52.286;9.576;2023-01-28T03:09:04;3.38;;;1.02;;
44169;SDS011;29836;52.286;9.576;2023-01-28T03:11:49;0.75;;;0.60;;
44169;SDS011;29836;52.286;9.576;2023-01-28T03:14:52;1.77;;;1.00;;
44169;SDS011;29836;52.286;9.576;2023-01-28T03:17:46;1.80;;;0.90;;
44169;SDS011;29836;52.286;9.576;2023-01-28T03:20:43;0.95;;;0.73;;
44169;SDS011;29836;52.286;9.576;2023-01-28T03:23:36;0.90;;;0.60;;
44169;SDS011;29836;52.286;9.576;2023-01-28T03:26:30;2.92;;;0.85;;
44169;SDS011;29836;52.286;9.576;2023-01-28T03:29:21;0.90;;;0.63;;
44169;SDS011;29836;52.286;9.576;2023-01-28T03:34:51;1.13;;;0.70;;
44169;SDS011;29836;52.286;9.576;2023-01-28T03:37:36;2.22;;;0.82;;
44169;SDS011;29836;52.286;9.576;2023-01-28T03:40:04;1.17;;;0.85;;
44169;SDS011;29836;52.286;9.576;2023-01-28T03:42:31;1.92;;;0.80;;
44169;SDS011;29836;52.286;9.576;2023-01-28T03:44:57;1.13;;;0.88;;
44169;SDS011;29836;52.286;9.576;2023-01-28T03:47:27;1.17;;;0.80;;
44169;SDS011;29836;52.286;9.576;2023-01-28T03:49:54;2.17;;;0.70;;
44169;SDS011;29836;52.286;9.576;2023-01-28T03:52:22;0.93;;;0.60;;
44169;SDS011;29836;52.286;9.576;2023-01-28T03:54:49;1.05;;;0.70;;
44169;SDS011;29836;52.286;9.576;2023-01-28T03:57:17;1.27;;;0.77;;
44169;SDS011;29836;52.286;9.576;2023-01-28T03:59:44;0.50;;;0.50;;
44169;SDS011;29836;52.286;9.576;2023-01-28T04:02:10;1.02;;;0.82;;
44169;SDS011;29836;52.286;9.576;2023-01-28T04:04:37;0.75;;;0.50;;
44169;SDS011;29836;52.286;9.576;2023-01-28T04:07:04;1.33;;;1.10;;
44169;SDS011;29836;52.286;9.576;2023-01-28T04:09:32;1.70;;;1.05;;
44169;SDS011;29836;52.286;9.576;2023-01-28T04:11:59;2.35;;;0.80;;
44169;SDS011;29836;52.286;9.576;2023-01-28T04:14:24;2.45;;;0.93;;
44169;SDS011;29836;52.286;9.576;2023-01-28T04:16:50;0.70;;;0.60;;
44169;SDS011;29836;52.286;9.576;2023-01-28T04:19:18;3.03;;;1.30;;
44169;SDS011;29836;52.286;9.576;2023-01-28T04:21:44;1.88;;;0.90;;
44169;SDS011;29836;52.286;9.576;2023-01-28T04:24:10;5.60;;;1.05;;
44169;SDS011;29836;52.286;9.576;2023-01-28T04:26:36;1.33;;;0.55;;
44169;SDS011;29836;52.286;9.576;2023-01-28T04:29:01;1.80;;;0.68;;
44169;SDS011;29836;52.286;9.576;2023-01-28T04:31:27;1.45;;;1.05;;
44169;SDS011;29836;52.286;9.576;2023-01-28T04:33:52;1.05;;;0.55;;
44169;SDS011;29836;52.286;9.576;2023-01-28T04:36:18;1.85;;;0.98;;
44169;SDS011;29836;52.286;9.576;2023-01-28T04:38:44;1.75;;;0.60;;
44169;SDS011;29836;52.286;9.576;2023-01-28T04:41:09;0.60;;;0.60;;
44169;SDS011;29836;52.286;9.576;2023-01-28T04:43:35;0.85;;;0.70;;
44169;SDS011;29836;52.286;9.576;2023-01-28T04:46:00;0.77;;;0.60;;
44169;SDS011;29836;52.286;9.576;2023-01-28T04:48:28;1.80;;;0.60;;
44169;SDS011;29836;52.286;9.576;2023-01-28T04:50:55;6.50;;;1.27;;
44169;SDS011;29836;52.286;9.576;2023-01-28T04:53:21;1.90;;;1.10;;
44169;SDS011;29836;52.286;9.576;2023-01-28T04:55:47;5.10;;;1.05;;
44169;SDS011;29836;52.286;9.576;2023-01-28T04:58:12;1.92;;;0.82;;
44169;SDS011;29836;52.286;9.576;2023-01-28T05:00:39;2.15;;;0.80;;
44169;SDS011;29836;52.286;9.576;2023-01-28T05:03:07;0.70;;;0.70;;
44169;SDS011;29836;52.286;9.576;2023-01-28T05:05:32;2.22;;;0.90;;
44169;SDS011;29836;52.286;9.576;2023-01-28T05:07:58;0.77;;;0.77;;
44169;SDS011;29836;52.286;9.576;2023-01-28T05:10:24;6.05;;;1.00;;
44169;SDS011;29836;52.286;9.576;2023-01-28T05:12:51;2.78;;;1.05;;
44169;SDS011;29836;52.286;9.576;2023-01-28T05:15:17;2.47;;;0.90;;
44169;SDS011;29836;52.286;9.576;2023-01-28T05:17:44;0.90;;;0.80;;
44169;SDS011;29836;52.286;9.576;2023-01-28T05:20:10;3.63;;;1.10;;
44169;SDS011;29836;52.286;9.576;2023-01-28T05:22:37;1.73;;;1.23;;
44169;SDS011;29836;52.286;9.576;2023-01-28T05:25:02;2.78;;;1.08;;
44169;SDS011;29836;52.286;9.576;2023-01-28T05:27:30;2.97;;;1.02;;
44169;SDS011;29836;52.286;9.576;2023-01-28T05:29:56;0.93;;;0.70;;
44169;SDS011;29836;52.286;9.576;2023-01-28T05:32:23;5.35;;;1.13;;
44169;SDS011;29836;52.286;9.576;2023-01-28T05:34:48;3.10;;;1.00;;
44169;SDS011;29836;52.286;9.576;2023-01-28T05:37:14;0.85;;;0.63;;
44169;SDS011;29836;52.286;9.576;2023-01-28T05:39:40;4.13;;;1.02;;
44169;SDS011;29836;52.286;9.576;2023-01-28T05:42:05;4.22;;;1.05;;
44169;SDS011;29836;52.286;9.576;2023-01-28T05:44:31;1.33;;;0.85;;
44169;SDS011;29836;52.286;9.576;2023-01-28T05:46:57;1.90;;;1.00;;
44169;SDS011;29836;52.286;9.576;2023-01-28T05:49:25;2.97;;;1.33;;
44169;SDS011;29836;52.286;9.576;2023-01-28T05:51:51;2.25;;;1.13;;
44169;SDS011;29836;52.286;9.576;2023-01-28T05:54:17;1.50;;;0.93;;
44169;SDS011;29836;52.286;9.576;2023-01-28T05:56:43;1.88;;;0.93;;
44169;SDS011;29836;52.286;9.576;2023-01-28T05:59:23;1.40;;;1.00;;
44169;SDS011;29836;52.286;9.576;2023-01-28T06:01:48;1.73;;;1.17;;
44169;SDS011;29836;52.286;9.576;2023-01-28T06:04:14;1.15;;;0.70;;
44169;SDS011;29836;52.286;9.576;2023-01-28T06:06:42;4.22;;;1.25;;
44169;SDS011;29836;52.286;9.576;2023-01-28T06:09:07;2.60;;;1.38;;
44169;SDS011;29836;52.286;9.576;2023-01-28T06:11:33;3.75;;;0.80;;
44169;SDS011;29836;52.286;9.576;2023-01-28T06:13:58;3.15;;;1.33;;
44169;SDS011;29836;52.286;9.576;2023-01-28T06:16:24;5.38;;;0.80;;
44169;SDS011;29836;52.286;9.576;2023-01-28T06:18:49;2.00;;;1.30;;
44169;SDS011;29836;52.286;9.576;2023-01-28T06:21:15;1.23;;;0.95;;
44169;SDS011;29836;52.286;9.576;2023-01-28T06:23:40;1.17;;;0.88;;
44169;SDS011;29836;52.286;9.576;2023-01-28T06:26:06;1.25;;;1.00;;
44169;SDS011;29836;52.286;9.576;2023-01-28T06:28:33;2.88;;;1.17;;
44169;SDS011;29836;52.286;9.576;2023-01-28T06:30:58;1.50;;;0.80;;
44169;SDS011;29836;52.286;9.576;2023-01-28T06:33:24;1.60;;;1.08;;
44169;SDS011;29836;52.286;9.576;2023-01-28T06:35:49;2.05;;;1.40;;
44169;SDS011;29836;52.286;9.576;2023-01-28T06:38:15;5.35;;;1.08;;
44169;SDS011;29836;52.286;9.576;2023-01-28T06:40:40;1.77;;;1.25;;
44169;SDS011;29836;52.286;9.576;2023-01-28T06:43:06;0.95;;;0.85;;
44169;SDS011;29836;52.286;9.576;2023-01-28T06:45:32;2.17;;;0.80;;
44169;SDS011;29836;52.286;9.576;2023-01-28T06:47:58;1.58;;;0.80;;
44169;SDS011;29836;52.286;9.576;2023-01-28T06:50:23;1.33;;;1.00;;
44169;SDS011;29836;52.286;9.576;2023-01-28T06:52:49;1.75;;;1.27;;
44169;SDS011;29836;52.286;9.576;2023-01-28T06:55:14;2.72;;;1.10;;
44169;SDS011;29836;52.286;9.576;2023-01-28T06:57:40;2.85;;;1.10;;
44169;SDS011;29836;52.286;9.576;2023-01-28T07:00:07;2.67;;;1.15;;
44169;SDS011;29836;52.286;9.576;2023-01-28T07:02:34;4.15;;;1.30;;
44169;SDS011;29836;52.286;9.576;2023-01-28T07:05:00;1.17;;;0.80;;
44169;SDS011;29836;52.286;9.576;2023-01-28T07:07:26;5.38;;;1.30;;
44169;SDS011;29836;52.286;9.576;2023-01-28T07:09:52;1.80;;;1.30;;
44169;SDS011;29836;52.286;9.576;2023-01-28T07:12:18;1.70;;;1.15;;
44169;SDS011;29836;52.286;9.576;2023-01-28T07:14:43;3.38;;;1.30;;
44169;SDS011;29836;52.286;9.576;2023-01-28T07:17:09;2.92;;;1.20;;
44169;SDS011;29836;52.286;9.576;2023-01-28T07:19:34;2.88;;;1.23;;
44169;SDS011;29836;52.286;9.576;2023-01-28T07:22:00;1.38;;;0.90;;
44169;SDS011;29836;52.286;9.576;2023-01-28T07:24:27;2.28;;;1.60;;
44169;SDS011;29836;52.286;9.576;2023-01-28T07:26:52;1.90;;;1.20;;
44169;SDS011;29836;52.286;9.576;2023-01-28T07:29:18;1.55;;;1.15;;
44169;SDS011;29836;52.286;9.576;2023-01-28T07:31:43;2.40;;;1.00;;
44169;SDS011;29836;52.286;9.576;2023-01-28T07:34:09;2.35;;;1.60;;
44169;SDS011;29836;52.286;9.576;2023-01-28T07:36:34;2.45;;;1.00;;
44169;SDS011;29836;52.286;9.576;2023-01-28T07:39:00;2.10;;;0.90;;
44169;SDS011;29836;52.286;9.576;2023-01-28T07:41:25;1.10;;;0.90;;
44169;SDS011;29836;52.286;9.576;2023-01-28T07:43:52;2.17;;;1.02;;
44169;SDS011;29836;52.286;9.576;2023-01-28T07:46:18;1.30;;;0.90;;
44169;SDS011;29836;52.286;9.576;2023-01-28T07:48:44;5.20;;;1.45;;
44169;SDS011;29836;52.286;9.576;2023-01-28T07:51:09;2.30;;;1.10;;
44169;SDS011;29836;52.286;9.576;2023-01-28T07:53:35;2.80;;;1.42;;
44169;SDS011;29836;52.286;9.576;2023-01-28T07:56:01;3.08;;;1.45;;
44169;SDS011;29836;52.286;9.576;2023-01-28T07:58:27;2.85;;;1.33;;
44169;SDS011;29836;52.286;9.576;2023-01-28T08:00:55;4.85;;;1.33;;
44169;SDS011;29836;52.286;9.576;2023-01-28T08:03:22;1.30;;;0.90;;
44169;SDS011;29836;52.286;9.576;2023-01-28T08:05:48;2.45;;;1.33;;
44169;SDS011;29836;52.286;9.576;2023-01-28T08:08:15;3.95;;;1.83;;
44169;SDS011;29836;52.286;9.576;2023-01-28T08:10:41;5.03;;;1.38;;
44169;SDS011;29836;52.286;9.576;2023-01-28T08:13:08;0.93;;;0.85;;
44169;SDS011;29836;52.286;9.576;2023-01-28T08:15:34;1.63;;;0.77;;
44169;SDS011;29836;52.286;9.576;2023-01-28T08:18:00;2.47;;;1.10;;
44169;SDS011;29836;52.286;9.576;2023-01-28T08:20:27;3.08;;;1.20;;
44169;SDS011;29836;52.286;9.576;2023-01-28T08:23:02;2.30;;;1.52;;
44169;SDS011;29836;52.286;9.576;2023-01-28T08:25:33;1.33;;;0.95;;
44169;SDS011;29836;52.286;9.576;2023-01-28T08:27:59;2.13;;;1.10;;
44169;SDS011;29836;52.286;9.576;2023-01-28T08:30:24;1.85;;;1.15;;
44169;SDS011;29836;52.286;9.576;2023-01-28T08:32:50;3.85;;;1.27;;
44169;SDS011;29836;52.286;9.576;2023-01-28T08:35:16;1.65;;;1.13;;
44169;SDS011;29836;52.286;9.576;2023-01-28T08:37:42;1.48;;;0.98;;
44169;SDS011;29836;52.286;9.576;2023-01-28T08:40:08;2.25;;;0.90;;
44169;SDS011;29836;52.286;9.576;2023-01-28T08:42:34;1.02;;;0.70;;
44169;SDS011;29836;52.286;9.576;2023-01-28T08:44:59;3.35;;;1.02;;
44169;SDS011;29836;52.286;9.576;2023-01-28T08:47:25;3.53;;;1.13;;
44169;SDS011;29836;52.286;9.576;2023-01-28T08:49:50;2.15;;;1.20;;
44169;SDS011;29836;52.286;9.576;2023-01-28T08:52:16;2.75;;;1.10;;
44169;SDS011;29836;52.286;9.576;2023-01-28T08:54:41;1.77;;;1.23;;
44169;SDS011;29836;52.286;9.576;2023-01-28T08:57:07;4.03;;;1.25;;
44169;SDS011;29836;52.286;9.576;2023-01-28T08:59:32;2.45;;;1.20;;
44169;SDS011;29836;52.286;9.576;2023-01-28T09:01:58;2.10;;;1.13;;
44169;SDS011;29836;52.286;9.576;2023-01-28T09:04:23;2.00;;;1.02;;
44169;SDS011;29836;52.286;9.576;2023-01-28T09:06:49;5.07;;;1.38;;
44169;SDS011;29836;52.286;9.576;2023-01-28T09:09:14;2.35;;;1.17;;
44169;SDS011;29836;52.286;9.576;2023-01-28T09:11:39;3.67;;;1.23;;
44169;SDS011;29836;52.286;9.576;2023-01-28T09:14:05;3.75;;;2.00;;
44169;SDS011;29836;52.286;9.576;2023-01-28T09:16:31;2.63;;;1.13;;
44169;SDS011;29836;52.286;9.576;2023-01-28T09:18:56;3.65;;;1.58;;
44169;SDS011;29836;52.286;9.576;2023-01-28T09:21:22;3.55;;;1.40;;
44169;SDS011;29836;52.286;9.576;2023-01-28T09:23:47;1.92;;;1.20;;
44169;SDS011;29836;52.286;9.576;2023-01-28T09:26:13;1.95;;;1.50;;
44169;SDS011;29836;52.286;9.576;2023-01-28T09:28:38;2.25;;;1.30;;
44169;SDS011;29836;52.286;9.576;2023-01-28T09:31:08;3.50;;;1.33;;
44169;SDS011;29836;52.286;9.576;2023-01-28T09:33:36;1.98;;;1.25;;
44169;SDS011;29836;52.286;9.576;2023-01-28T09:36:03;2.92;;;1.35;;
44169;SDS011;29836;52.286;9.576;2023-01-28T09:38:30;1.33;;;1.10;;
44169;SDS011;29836;52.286;9.576;2023-01-28T09:40:56;3.25;;;1.40;;
44169;SDS011;29836;52.286;9.576;2023-01-28T09:43:39;2.10;;;1.20;;
44169;SDS011;29836;52.286;9.576;2023-01-28T09:46:15;1.75;;;1.00;;
44169;SDS011;29836;52.286;9.576;2023-01-28T10:11:53;3.75;;;1.90;;
44169;SDS011;29836;52.286;9.576;2023-01-28T10:14:49;2.63;;;1.85;;
44169;SDS011;29836;52.286;9.576;2023-01-28T10:17:41;2.72;;;1.67;;
44169;SDS011;29836;52.286;9.576;2023-01-28T10:22:41;4.47;;;1.98;;
44169;SDS011;29836;52.286;9.576;2023-01-28T10:25:22;3.10;;;1.95;;
44169;SDS011;29836;52.286;9.576;2023-01-28T10:27:50;7.03;;;1.70;;
44169;SDS011;29836;52.286;9.576;2023-01-28T10:30:23;2.95;;;1.90;;
44169;SDS011;29836;52.286;9.576;2023-01-28T10:35:40;2.55;;;1.60;;
44169;SDS011;29836;52.286;9.576;2023-01-28T10:38:08;2.15;;;1.45;;
44169;SDS011;29836;52.286;9.576;2023-01-28T10:40:39;3.45;;;1.65;;
44169;SDS011;29836;52.286;9.576;2023-01-28T10:43:06;2.38;;;1.58;;
44169;SDS011;29836;52.286;9.576;2023-01-28T10:45:50;4.55;;;2.10;;
44169;SDS011;29836;52.286;9.576;2023-01-28T10:48:29;6.30;;;1.53;;
44169;SDS011;29836;52.286;9.576;2023-01-28T10:50:59;1.70;;;1.25;;
44169;SDS011;29836;52.286;9.576;2023-01-28T10:53:36;3.08;;;1.83;;
44169;SDS011;29836;52.286;9.576;2023-01-28T10:56:03;4.43;;;1.65;;
44169;SDS011;29836;52.286;9.576;2023-01-28T10:58:32;2.78;;;1.40;;
44169;SDS011;29836;52.286;9.576;2023-01-28T11:01:00;2.38;;;1.70;;
44169;SDS011;29836;52.286;9.576;2023-01-28T11:03:29;4.68;;;1.80;;
44169;SDS011;29836;52.286;9.576;2023-01-28T11:05:59;3.13;;;1.83;;
44169;SDS011;29836;52.286;9.576;2023-01-28T11:08:26;2.83;;;1.88;;
44169;SDS011;29836;52.286;9.576;2023-01-28T11:10:53;2.63;;;1.67;;
44169;SDS011;29836;52.286;9.576;2023-01-28T11:13:26;5.82;;;2.33;;
44169;SDS011;29836;52.286;9.576;2023-01-28T11:18:31;3.30;;;1.70;;
44169;SDS011;29836;52.286;9.576;2023-01-28T11:21:00;2.85;;;2.00;;
44169;SDS011;29836;52.286;9.576;2023-01-28T11:23:30;2.97;;;2.00;;
44169;SDS011;29836;52.286;9.576;2023-01-28T11:28:31;2.58;;;1.83;;
44169;SDS011;29836;52.286;9.576;2023-01-28T11:30:59;3.10;;;1.63;;
44169;SDS011;29836;52.286;9.576;2023-01-28T11:33:31;3.63;;;1.80;;
44169;SDS011;29836;52.286;9.576;2023-01-28T11:36:04;3.30;;;1.63;;
44169;SDS011;29836;52.286;9.576;2023-01-28T11:38:50;6.15;;;1.92;;
44169;SDS011;29836;52.286;9.576;2023-01-28T11:41:36;4.82;;;2.25;;
44169;SDS011;29836;52.286;9.576;2023-01-28T11:44:14;3.85;;;2.10;;
44169;SDS011;29836;52.286;9.576;2023-01-28T11:46:56;2.47;;;1.90;;
44169;SDS011;29836;52.286;9.576;2023-01-28T11:58:10;3.03;;;2.00;;
44169;SDS011;29836;52.286;9.576;2023-01-28T12:06:21;4.03;;;1.97;;
44169;SDS011;29836;52.286;9.576;2023-01-28T12:11:55;3.17;;;2.28;;
44169;SDS011;29836;52.286;9.576;2023-01-28T12:15:00;3.95;;;2.17;;
44169;SDS011;29836;52.286;9.576;2023-01-28T12:18:35;5.22;;;2.20;;
44169;SDS011;29836;52.286;9.576;2023-01-28T12:31:43;3.38;;;1.95;;
44169;SDS011;29836;52.286;9.576;2023-01-28T12:40:07;2.80;;;1.88;;
44169;SDS011;29836;52.286;9.576;2023-01-28T12:42:59;2.63;;;1.73;;
44169;SDS011;29836;52.286;9.576;2023-01-28T12:47:58;4.32;;;2.38;;
44169;SDS011;29836;52.286;9.576;2023-01-28T12:50:28;3.33;;;1.65;;
44169;SDS011;29836;52.286;9.576;2023-01-28T12:53:02;2.50;;;1.73;;
44169;SDS011;29836;52.286;9.576;2023-01-28T12:55:53;2.35;;;1.45;;
44169;SDS011;29836;52.286;9.576;2023-01-28T13:01:06;3.25;;;1.80;;
44169;SDS011;29836;52.286;9.576;2023-01-28T13:03:40;3.53;;;1.60;;
44169;SDS011;29836;52.286;9.576;2023-01-28T13:06:15;2.80;;;1.88;;
44169;SDS011;29836;52.286;9.576;2023-01-28T13:08:59;4.32;;;2.65;;
44169;SDS011;29836;52.286;9.576;2023-01-28T13:11:34;7.72;;;2.75;;
44169;SDS011;29836;52.286;9.576;2023-01-28T13:14:02;2.65;;;1.92;;
44169;SDS011;29836;52.286;9.576;2023-01-28T13:16:28;4.13;;;1.90;;
44169;SDS011;29836;52.286;9.576;2023-01-28T13:19:03;3.55;;;1.70;;
44169;SDS011;29836;52.286;9.576;2023-01-28T13:21:32;6.78;;;2.05;;
44169;SDS011;29836;52.286;9.576;2023-01-28T13:26:36;5.57;;;2.50;;
44169;SDS011;29836;52.286;9.576;2023-01-28T13:31:40;3.10;;;1.90;;
44169;SDS011;29836;52.286;9.576;2023-01-28T13:37:16;3.30;;;2.08;;
44169;SDS011;29836;52.286;9.576;2023-01-28T13:40:05;3.60;;;2.17;;
44169;SDS011;29836;52.286;9.576;2023-01-28T13:42:31;2.70;;;1.90;;
44169;SDS011;29836;52.286;9.576;2023-01-28T13:47:48;3.38;;;2.10;;
44169;SDS011;29836;52.286;9.576;2023-01-28T13:50:19;3.08;;;1.98;;
44169;SDS011;29836;52.286;9.576;2023-01-28T13:55:17;3.45;;;2.05;;
44169;SDS011;29836;52.286;9.576;2023-01-28T14:00:49;4.70;;;2.33;;
44169;SDS011;29836;52.286;9.576;2023-01-28T14:18:00;3.28;;;2.35;;
44169;SDS011;29836;52.286;9.576;2023-01-28T14:20:36;4.47;;;3.50;;
44169;SDS011;29836;52.286;9.576;2023-01-28T14:23:18;7.00;;;3.00;;
44169;SDS011;29836;52.286;9.576;2023-01-28T14:28:47;4.07;;;2.70;;
44169;SDS011;29836;52.286;9.576;2023-01-28T14:31:37;5.28;;;2.70;;
44169;SDS011;29836;52.286;9.576;2023-01-28T14:34:18;6.05;;;3.00;;
44169;SDS011;29836;52.286;9.576;2023-01-28T14:36:54;3.88;;;2.60;;
44169;SDS011;29836;52.286;9.576;2023-01-28T14:39:24;8.02;;;2.67;;
44169;SDS011;29836;52.286;9.576;2023-01-28T14:41:53;5.57;;;2.85;;
44169;SDS011;29836;52.286;9.576;2023-01-28T14:47:41;6.22;;;3.60;;
44169;SDS011;29836;52.286;9.576;2023-01-28T14:55:52;5.47;;;2.95;;
44169;SDS011;29836;52.286;9.576;2023-01-28T14:58:40;4.15;;;2.80;;
44169;SDS011;29836;52.286;9.576;2023-01-28T15:01:18;6.65;;;2.83;;
44169;SDS011;29836;52.286;9.576;2023-01-28T15:03:52;6.35;;;2.70;;
44169;SDS011;29836;52.286;9.576;2023-01-28T15:06:19;5.63;;;3.00;;
44169;SDS011;29836;52.286;9.576;2023-01-28T15:08:53;5.35;;;2.92;;
44169;SDS011;29836;52.286;9.576;2023-01-28T15:11:29;4.95;;;3.00;;
44169;SDS011;29836;52.286;9.576;2023-01-28T15:13:55;6.75;;;3.15;;
44169;SDS011;29836;52.286;9.576;2023-01-28T15:16:26;7.32;;;3.72;;
44169;SDS011;29836;52.286;9.576;2023-01-28T15:18:54;5.75;;;3.20;;
44169;SDS011;29836;52.286;9.576;2023-01-28T15:21:22;7.72;;;3.30;;
44169;SDS011;29836;52.286;9.576;2023-01-28T15:23:54;5.68;;;3.63;;
44169;SDS011;29836;52.286;9.576;2023-01-28T15:26:26;5.88;;;3.15;;
44169;SDS011;29836;52.286;9.576;2023-01-28T15:28:53;5.55;;;3.47;;
44169;SDS011;29836;52.286;9.576;2023-01-28T15:31:27;5.05;;;2.80;;
44169;SDS011;29836;52.286;9.576;2023-01-28T15:36:38;7.40;;;3.08;;
44169;SDS011;29836;52.286;9.576;2023-01-28T15:39:11;6.07;;;3.85;;
44169;SDS011;29836;52.286;9.576;2023-01-28T15:41:38;5.50;;;3.45;;
44169;SDS011;29836;52.286;9.576;2023-01-28T15:44:15;4.68;;;3.03;;
44169;SDS011;29836;52.286;9.576;2023-01-28T15:46:56;9.20;;;3.45;;
44169;SDS011;29836;52.286;9.576;2023-01-28T15:49:26;9.93;;;3.58;;
44169;SDS011;29836;52.286;9.576;2023-01-28T15:51:56;5.90;;;3.03;;
44169;SDS011;29836;52.286;9.576;2023-01-28T15:54:22;7.13;;;3.50;;
44169;SDS011;29836;52.286;9.576;2023-01-28T15:56:48;6.55;;;3.85;;
44169;SDS011;29836;52.286;9.576;2023-01-28T15:59:16;6.85;;;3.60;;
44169;SDS011;29836;52.286;9.576;2023-01-28T16:01:42;6.00;;;3.70;;
44169;SDS011;29836;52.286;9.576;2023-01-28T16:04:20;5.85;;;3.47;;
44169;SDS011;29836;52.286;9.576;2023-01-28T16:06:47;4.70;;;3.60;;
44169;SDS011;29836;52.286;9.576;2023-01-28T16:09:27;8.00;;;3.28;;
44169;SDS011;29836;52.286;9.576;2023-01-28T16:12:02;6.00;;;3.53;;
44169;SDS011;29836;52.286;9.576;2023-01-28T16:14:33;6.82;;;3.97;;
44169;SDS011;29836;52.286;9.576;2023-01-28T16:17:06;12.25;;;4.47;;
44169;SDS011;29836;52.286;9.576;2023-01-28T16:19:35;6.32;;;4.03;;
44169;SDS011;29836;52.286;9.576;2023-01-28T16:22:03;8.60;;;5.05;;
44169;SDS011;29836;52.286;9.576;2023-01-28T16:24:30;9.23;;;4.35;;
44169;SDS011;29836;52.286;9.576;2023-01-28T16:27:04;10.07;;;4.50;;
44169;SDS011;29836;52.286;9.576;2023-01-28T16:29:31;9.25;;;5.30;;
44169;SDS011;29836;52.286;9.576;2023-01-28T16:31:57;9.20;;;4.95;;
44169;SDS011;29836;52.286;9.576;2023-01-28T16:34:24;8.93;;;5.18;;
44169;SDS011;29836;52.286;9.576;2023-01-28T16:36:52;7.70;;;4.78;;
44169;SDS011;29836;52.286;9.576;2023-01-28T16:39:20;11.15;;;4.28;;
44169;SDS011;29836;52.286;9.576;2023-01-28T16:41:46;18.20;;;5.80;;
44169;SDS011;29836;52.286;9.576;2023-01-28T16:44:13;13.05;;;6.53;;
44169;SDS011;29836;52.286;9.576;2023-01-28T16:46:40;14.80;;;6.70;;
44169;SDS011;29836;52.286;9.576;2023-01-28T16:49:06;10.57;;;5.10;;
44169;SDS011;29836;52.286;9.576;2023-01-28T16:51:32;10.38;;;6.47;;
44169;SDS011;29836;52.286;9.576;2023-01-28T16:53:59;12.23;;;6.35;;
44169;SDS011;29836;52.286;9.576;2023-01-28T16:56:27;10.32;;;5.30;;
44169;SDS011;29836;52.286;9.576;2023-01-28T16:58:52;11.40;;;5.70;;
44169;SDS011;29836;52.286;9.576;2023-01-28T17:01:18;12.10;;;5.90;;
44169;SDS011;29836;52.286;9.576;2023-01-28T17:03:44;13.70;;;6.97;;
44169;SDS011;29836;52.286;9.576;2023-01-28T17:06:11;11.15;;;5.25;;
44169;SDS011;29836;52.286;9.576;2023-01-28T17:08:41;12.50;;;6.80;;
44169;SDS011;29836;52.286;9.576;2023-01-28T17:11:06;9.52;;;5.00;;
44169;SDS011;29836;52.286;9.576;2023-01-28T17:13:32;9.55;;;5.18;;
44169;SDS011;29836;52.286;9.576;2023-01-28T17:16:01;9.68;;;5.43;;
44169;SDS011;29836;52.286;9.576;2023-01-28T17:18:27;18.42;;;5.75;;